Hakon Mosby — LJIT — position and weather

sailwx.info

Track history (hours):
 
Tides and Currents Weather Stations Pressure Air Temp Water Temp Dewpoint Dewpoint Depression Visibility Wind Speed Wind Dir Waves Ship Positions

Oceanographic research ship Hakon Mosby (Norway)

Detailed information on ship capabilities available from University of Delaware's Ocean Information Center and ARCUS's ALIAS (Arctic Logistics Information and Support) project.

Last reported at 2014-Jul-22 05:00 UTC. Time now 2014-Jul-22 09:19 UTC.
Position N 73°00' E 027°00'.

Type: Dredging. MMSI: 258244000.

Wind from 300 at 8 knots

Barometer 1022.6 mb
Air temperature 8.6 ° C
Dewpoint 7.6 ° C
Water temperature 8.6 ° C

Date/timePositionNaut miles runAvg speedWind from/ knotsBaromVisibWave heightAir tempDewpointWater temp
2014-Jul-22 05:00N 73°00' E 027°00'1110.5 300 / 81022.6 8.6 7.6 8.6
2014-Jul-22 04:00N 73°00' E 026°24'1110.6 290 / 81022.7 8.4 7.2 8.6
2014-Jul-22 03:00N 72°54' E 025°54'9 8.8 290 / 81022.8 8.4 6.9 8.5
2014-Jul-22 02:00N 72°54' E 025°24'1212.2 250 / 61022.8 8.3 6.6 8.5
2014-Jul-22 01:00N 72°48' E 024°48'1110.7 250 / 41022.9 7.8 6.5 9.1
2014-Jul-22 00:00N 72°42' E 024°18'14 7.1 340 / 21022.8 7.3 6.4 8.6
2014-Jul-21 22:00N 72°42' E 023°30'9 9.3 270 / 41023.2 8.1 6.7 9.0
2014-Jul-21 21:00N 72°36' E 023°06'1110.8 250 / 21023.2 8.3 6.9 9.2
2014-Jul-21 20:00N 72°30' E 022°36'7 7.2 180 / 21023.1 8.3 6.8 9.1
2014-Jul-21 19:00N 72°30' E 022°12'17 8.7 160 / 41023.2 8.6 7.2 9.1
2014-Jul-21 17:00N 72°24' E 021°18'9 9.4 160 / 4 8.6 7.3 9.6
2014-Jul-21 16:00N 72°18' E 020°54'9 9.1 160 / 41023.2 8.2 7.1 9.3
2014-Jul-21 15:00N 72°18' E 020°24'27 8.9 150 / 41023.3 8.5 7.4 9.0
2014-Jul-21 12:00N 72°06' E 019°06'8 8.2 170 / 61023.3 4.0 3.4 9.7
2014-Jul-21 11:00N 72°00' E 018°48'7 7.4 160 / 101023.2 9.1 8.5 9.3
2014-Jul-21 10:00N 72°00' E 018°24'0 0.0 150 / 81023.2 9.1 8.4 9.8
2014-Jul-21 09:00N 72°00' E 018°24'0 0.0 150 / 81023.3 9.1 8.5 9.8
2014-Jul-21 08:00N 72°00' E 018°24'0 0.0 160 / 81023.2 9.1 8.510.0
2014-Jul-21 07:00N 72°00' E 018°24'6 6.3 140 / 81023.2 9.1 8.4 9.8
2014-Jul-21 06:00N 71°54' E 018°30'3110.2 120 / 141023.2 8.6 8.0 9.7
2014-Jul-21 03:00N 71°24' E 018°48'1212.0 110 / 141023.2 9.1 8.5 9.7
2014-Jul-21 02:00N 71°12' E 018°48'1212.2 100 / 161023.3 9.0 8.4 9.7
2014-Jul-21 01:00N 71°00' E 018°54'1212.2 100 / 161023.2 9.0 8.3 9.8
2014-Jul-21 00:00N 70°48' E 019°00'6 6.3 100 / 171023.1 9.0 8.2 9.8
2014-Jul-20 23:00N 70°42' E 019°06'1212.2 090 / 171023.2 9.1 8.310.2
2014-Jul-20 22:00N 70°30' E 019°12'1212.2 090 / 191023.1 8.7 7.8 9.6
2014-Jul-20 21:00N 70°18' E 019°18'1212.2 100 / 191023.0 8.3 7.2 8.3
2014-Jul-20 20:00N 70°06' E 019°24'18 9.0 070 / 171022.7 9.6 8.0 8.6
2014-Jul-20 18:00N 69°48' E 019°24'16 7.9 110 / 41022.7 12.410.410.7
2014-Jul-20 16:00N 69°36' E 018°54'0 0.0 060 / 61022.1 12.7 8.8 9.0
2014-Jul-20 15:00N 69°36' E 018°54'0 0.0 060 / 101022.2 12.5 8.8 8.8
2014-Jul-20 13:00N 69°36' E 018°54'0 0.0 050 / 81022.7 12.8 9.0 8.2
2014-Jul-20 12:00N 69°36' E 018°54'0 0.0 060 / 81023.0 12.2 8.7 8.1
2014-Jul-20 10:00N 69°36' E 018°54'0 0.0 070 / 61023.6 11.4 8.7 8.1
2014-Jul-20 09:00N 69°36' E 018°54'0 0.0 070 / 41023.8 10.6 9.0 8.1
2014-Jul-20 08:00N 69°36' E 018°54'0 0.0 070 / 41024.2 10.0 9.0 8.3
2014-Jul-20 07:00N 69°36' E 018°54'0 0.0 070 / 41024.5 9.5 8.5 8.1
2014-Jul-20 05:00N 69°36' E 018°54'0 0.0 160 / 21024.7 9.4-5.5 8.1
2014-Jul-20 04:00N 69°36' E 018°54'0 0.0 080 / 21025.0 8.9 8.0 8.1
2014-Jul-20 03:00N 69°36' E 018°54'0 0.0 050 / 21025.2 9.1 8.1 8.1
2014-Jul-20 00:00N 69°36' E 018°54'0 0.0 050 / 41025.7 9.7 8.6 8.2
2014-Jul-19 23:00N 69°36' E 018°54'0 0.0 060 / 41025.7 10.1 8.9 8.1
2014-Jul-19 22:00N 69°36' E 018°54'0 0.0 060 / 41025.9 10.4 9.1 8.3
2014-Jul-19 21:00N 69°36' E 018°54'0 0.0 070 / 61025.7 10.3 8.9 8.5
2014-Jul-19 20:00N 69°36' E 018°54'0 0.0 060 / 8 10.4 8.7 8.5
2014-Jul-19 19:00N 69°36' E 018°54'0 0.0 060 / 101025.5 11.5 8.8 8.6
2014-Jul-19 18:00N 69°36' E 018°54'0 0.0 040 / 81025.7 11.5 8.7 8.8
2014-Jul-19 15:00N 69°36' E 018°54'0 0.0 050 / 101025.5 13.3 9.1 8.3
2014-Jul-19 13:00N 69°36' E 018°54'0 0.0 050 / 81026.0 13.1 8.8 7.8
2014-Jul-19 12:00N 69°36' E 018°54'0 0.0 060 / 81026.2 13.6 9.1 7.6
2014-Jul-19 11:00N 69°36' E 018°54'0 0.0 060 / 61026.2 12.6 8.9 7.6
2014-Jul-19 10:00N 69°36' E 018°54'0 0.0 060 / 61026.2 11.9 8.5 7.7
2014-Jul-19 09:00N 69°36' E 018°54'0 0.0 060 / 41026.5 11.3 8.6 7.8
2014-Jul-19 07:00N 69°36' E 018°54'0 0.0 060 / 41026.5 10.8 8.5 7.6
2014-Jul-19 06:00N 69°36' E 018°54'0 0.0 060 / 41026.5 10.5 8.6 7.8
2014-Jul-19 05:00N 69°36' E 018°54'0 0.0 060 / 41026.4 10.1 8.5 7.8
2014-Jul-19 04:00N 69°36' E 018°54'0 0.0 060 / 41026.2 9.8 8.2 7.6
2014-Jul-19 03:00N 69°36' E 018°54'0 0.0 060 / 61026.2 9.8 8.3 7.8
2014-Jul-19 02:00N 69°36' E 018°54'0 0.0 060 / 41026.2 10.1 8.4 7.8
2014-Jul-19 01:00N 69°36' E 018°54'0 0.0 060 / 61026.0 10.3 8.5 7.6
2014-Jul-19 00:00N 69°36' E 018°54'0 0.0 070 / 61025.9 10.5 8.8 7.8
2014-Jul-18 23:00N 69°36' E 018°54'0 0.0 060 / 21025.7 10.6 8.7 7.6
2014-Jul-18 21:00N 69°36' E 018°54'0 0.0 060 / 81025.4 0.3-1.5 7.6
2014-Jul-18 20:00N 69°36' E 018°54'0 0.0 060 / 61024.9 11.0 8.7 7.8
2014-Jul-18 19:00N 69°36' E 018°54'0 0.0 050 / 61024.5 11.6 9.0 7.8
2014-Jul-18 18:00N 69°36' E 018°54'0 0.0 060 / 81024.2 11.8 9.1 7.6
2014-Jul-18 17:00N 69°36' E 018°54'0 0.0 050 / 81024.2 12.5 9.1 8.0
2014-Jul-18 15:00N 69°36' E 018°54'0 0.0 050 / 81023.8 13.4 9.4 7.8
2014-Jul-18 13:00N 69°36' E 018°54'0 0.0 050 / 41023.7 13.6 9.3 7.6
2014-Jul-18 12:00N 69°36' E 018°54'0 0.0 050 / 61023.6 13.5 9.2 7.8
2014-Jul-18 10:00N 69°36' E 018°54'0 0.0 050 / 61023.5 12.7 9.3 7.7
2014-Jul-18 09:00N 69°36' E 018°54'0 0.0 040 / 81023.1 11.5 9.3 7.8
2014-Jul-18 07:00N 69°36' E 018°54'0 0.0 050 / 61022.5 11.0 8.6 8.1
2014-Jul-18 06:00N 69°36' E 018°54'0 0.0 050 / 81022.2 10.9 8.6 7.8
2014-Jul-18 05:00N 69°36' E 018°54'7 7.3 060 / 81022.2 11.0 8.7 8.6
2014-Jul-18 04:00N 69°30' E 018°42'17 8.4 150 / 61021.7 11.5 9.4 8.5
2014-Jul-18 02:00N 69°30' E 017°54'9 8.7 280 / 41021.7 11.5 8.710.7
2014-Jul-18 01:00N 69°36' E 017°36'20 9.9 260 / 21021.6 11.6 8.712.3
2014-Jul-17 23:00N 69°42' E 016°42'2110.4 280 / 41021.6 11.4 8.411.8
2014-Jul-17 21:00N 69°42' E 015°42'1010.2 260 / 41021.4 11.0 8.011.8
2014-Jul-17 20:00N 69°48' E 015°18'2110.4 260 / 41021.2 11.0 8.411.2
2014-Jul-17 18:00N 69°48' E 014°18'1211.9 250 / 61020.7 10.9 4.511.3
2014-Jul-17 17:00N 69°54' E 013°48'8 8.2 240 / 61020.6 10.7 8.710.8
2014-Jul-17 16:00N 69°54' E 013°24'1010.3 240 / 41020.3 10.5 8.510.7
2014-Jul-17 15:00N 69°54' E 012°54'1211.9 230 / 21020.2 10.5 8.610.7
2014-Jul-17 14:00N 70°00' E 012°24'4310.9 250 / 41020.2 10.6 8.510.9
2014-Jul-17 10:00N 70°06' E 010°18'1010.2 230 / 41019.3 10.6 7.710.7
2014-Jul-17 09:00N 70°06' E 009°48'8 8.2 230 / 41019.1 10.5 7.911.4
2014-Jul-17 08:00N 70°06' E 009°24'1212.3 220 / 41018.8 10.4 7.810.7
2014-Jul-17 07:00N 70°06' E 008°48'1211.8 190 / 41018.7 10.1 7.610.7
2014-Jul-17 06:00N 70°12' E 008°18'18 9.1 230 / 21018.2 10.4 8.110.6
2014-Jul-17 04:00N 70°12' E 007°24'1010.2 200 / 41018.0 10.0 8.6 9.0
2014-Jul-17 03:00N 70°12' E 006°54'2010.2 230 / 81017.7 10.1 9.1 9.6
2014-Jul-17 01:00N 70°12' E 005°54'1010.2 250 / 61017.6 10.5 9.510.5
2014-Jul-17 00:00N 70°12' E 005°24'8 8.1 230 / 101017.5 10.5 9.410.5
2014-Jul-16 23:00N 70°12' E 005°00'1010.2 220 / 101017.5 10.5 9.210.0
2014-Jul-16 22:00N 70°12' E 004°30'8 8.1 220 / 101017.2 10.5 9.0 9.8
2014-Jul-16 21:00N 70°12' E 004°06'4 4.1 210 / 81017.0 10.1 8.7 9.3
2014-Jul-16 20:00N 70°12' E 003°54'4 4.1 220 / 121016.6 10.2 8.8 9.0
2014-Jul-16 19:00N 70°12' E 003°42'4 4.1 210 / 121016.2 10.2 8.8 9.1
2014-Jul-16 18:00N 70°12' E 003°30'8 8.1 210 / 121016.0 10.3 8.8 9.5
2014-Jul-16 17:00N 70°12' E 003°06'10 5.1 210 / 61015.7 10.1 8.6 9.0
2014-Jul-16 15:00N 70°12' E 002°36'4 4.1 230 / 101014.8 9.8 8.1 8.8
2014-Jul-16 14:00N 70°12' E 002°24'6 6.1 230 / 101014.7 9.8 7.9 8.8
2014-Jul-16 13:00N 70°12' E 002°06'6 6.1 230 / 101014.2 9.6 7.8 8.1
2014-Jul-16 12:00N 70°12' E 001°48'12 4.0 250 / 101013.7 9.5 7.7 6.9
2014-Jul-16 09:00N 70°00' E 001°48'42 8.4 270 / 141012.7 9.3 8.3 8.0
2014-Jul-16 04:00N 70°42' E 001°48'0 0.0 270 / 161008.7 9.4 8.8 9.5
2014-Jul-16 03:00N 70°42' E 001°48'6 3.0 260 / 161008.2 9.6 8.9 9.3
2014-Jul-16 01:00N 70°36' E 001°48'6 6.0 250 / 161006.9 9.6 9.2 8.8
2014-Jul-16 00:00N 70°30' E 001°48'0 0.0 240 / 121006.2 10.0 9.5 8.8
2014-Jul-15 23:00N 70°30' E 001°48'6 6.0 220 / 121005.7 10.0 9.6 8.9
2014-Jul-15 22:00N 70°24' E 001°48'6 3.0 180 / 101005.3 9.5 9.1 8.8
2014-Jul-15 20:00N 70°18' E 001°48'0 0.0 140 / 141004.7 9.6 8.9 7.8
2014-Jul-15 19:00N 70°18' E 001°48'0 0.0 140 / 141004.4 9.5 8.8 7.7
2014-Jul-15 18:00N 70°18' E 001°48'6 6.0 130 / 141004.1 9.2 8.6 7.5
2014-Jul-15 17:00N 70°12' E 001°48'4 4.1 130 / 141004.0 9.7 9.0 7.1
2014-Jul-15 16:00N 70°12' E 001°36'8 8.1 140 / 171003.7 1.6 0.9 8.4
2014-Jul-15 15:00N 70°12' E 001°12'8 8.1 130 / 171003.6 10.4 9.7 9.1
2014-Jul-15 14:00N 70°12' E 000°48'6 6.1 130 / 171003.3 10.5 9.8 9.2
2014-Jul-15 13:00N 70°12' E 000°30'8 8.1 120 / 161003.3 10.3 9.6 9.8
2014-Jul-15 12:00N 70°12' E 000°06'6 6.1 110 / 171003.5 10.1 9.5 9.3
2014-Jul-15 11:00N 70°12' W 000°12'8 8.1 110 / 171003.8 9.8 9.2 8.9
2014-Jul-15 10:00N 70°12' W 000°36'8 8.1 110 / 171004.3 1.6 1.0 9.3
2014-Jul-15 09:00N 70°12' W 001°00'8 8.1 120 / 211004.5 9.8 9.1 8.4
2014-Jul-15 08:00N 70°12' W 001°24'12 6.1 120 / 161004.7 9.8 9.2 8.6
2014-Jul-15 06:00N 70°12' W 002°00'6 6.1 100 / 191004.7 9.6 9.2 9.0
2014-Jul-15 05:00N 70°12' W 002°18'14 7.1 110 / 211005.2 9.6 9.2 8.4
2014-Jul-15 03:00N 70°12' W 003°00'14 7.1 110 / 171005.7 9.8 9.3 8.5
2014-Jul-15 01:00N 70°12' W 003°42'8 8.1 100 / 161006.7 9.1 8.5 7.8
2014-Jul-15 00:00N 70°12' W 004°06'8 8.1 100 / 161007.1 9.1 8.5 7.8
2014-Jul-14 23:00N 70°12' W 004°30'1010.1 100 / 141007.6 8.7 8.1 7.3
2014-Jul-14 22:00N 70°06' W 004°54'1010.1 110 / 141008.0 8.6 8.0 7.6
2014-Jul-14 21:00N 70°12' W 005°18'17 8.7 100 / 171008.2 8.8 8.2 8.3
2014-Jul-14 19:00N 70°06' W 006°06'8 8.2 110 / 191009.0 8.8 8.0 8.1
2014-Jul-14 18:00N 70°06' W 006°30'1010.2 120 / 191009.1 8.9 8.2 7.6
2014-Jul-14 17:00N 70°00' W 006°54'8 8.2 130 / 211009.3 8.6 8.2 7.3
2014-Jul-14 16:00N 70°00' W 007°18'1010.2 130 / 211009.5 8.8 8.3 7.3
2014-Jul-14 15:00N 69°54' W 007°42'8 8.2 130 / 211009.2 8.5 8.1 7.0
2014-Jul-14 14:00N 69°54' W 008°06'1010.2 130 / 211009.1 8.6 8.1 6.8
2014-Jul-14 13:00N 69°48' W 008°30'1010.2 130 / 211008.7 8.5 8.0 6.6
2014-Jul-14 12:00N 69°42' W 008°54'8 8.3 130 / 211008.3 8.5 8.0 6.8
2014-Jul-14 11:00N 69°42' W 009°18'8 8.3 130 / 191007.7 8.6 8.1 6.6
2014-Jul-14 10:00N 69°42' W 009°42'10 5.2 120 / 191007.8 8.6 8.1 6.8
2014-Jul-14 08:00N 69°42' W 010°12'8 8.3 120 / 191008.1 8.4 8.0 6.6
2014-Jul-14 07:00N 69°42' W 010°36'1010.2 110 / 171007.6 8.3 7.9 6.6
2014-Jul-14 06:00N 69°48' W 011°00'8 8.3 100 / 161007.7 8.1 7.6 6.6
2014-Jul-14 05:00N 69°48' W 011°24'18 8.8 100 / 211007.4 8.6 8.2 6.6
2014-Jul-14 03:00N 69°54' W 012°12'8 8.2 110 / 161008.7 8.0 7.5 6.1
2014-Jul-14 02:00N 69°54' W 012°36'8 8.2 110 / 161008.6 7.8 7.4 5.6
2014-Jul-14 01:00N 69°54' W 013°00'8 8.2 100 / 171008.7 7.4 6.9 5.5
2014-Jul-14 00:00N 69°54' W 013°24'14 6.9 100 / 171008.6 7.0 6.5 5.0
2014-Jul-13 22:00N 70°00' W 014°00'1010.2 090 / 141009.2 6.3 5.8 5.0
2014-Jul-13 21:00N 69°54' W 014°24'12 6.2 090 / 161009.4 6.2 5.6 4.7
2014-Jul-13 19:00N 69°54' W 015°00'10 5.1 070 / 161010.2 6.0 5.4 4.5
2014-Jul-13 17:00N 70°00' W 015°24'1010.2 060 / 161010.7 5.8 5.2 4.0
2014-Jul-13 16:00N 69°54' W 015°48'7 7.3 050 / 141010.7 5.1 4.6 3.9
2014-Jul-13 15:00N 70°00' W 016°00'1010.2 050 / 141011.0 5.4 4.8 3.8
2014-Jul-13 14:00N 69°54' W 016°24'4 4.1 060 / 121011.3 5.0 4.4 4.1
2014-Jul-13 13:00N 69°54' W 016°36'7 7.3 060 / 121011.3 4.8 4.2 3.9
2014-Jul-13 12:00N 70°00' W 016°48'2 2.1 060 / 141011.7 4.5 4.0 3.2
2014-Jul-13 11:00N 70°00' W 016°54'12 6.0 050 / 141011.7 4.5 3.9 3.6
2014-Jul-13 09:00N 69°54' W 017°24'6 6.2 040 / 141012.0 3.7 3.2 1.7
2014-Jul-13 08:00N 69°54' W 017°42'4 4.1 030 / 161012.2 3.2 2.4 2.2
2014-Jul-13 07:00N 69°54' W 017°54'6 6.2 030 / 161012.5 3.0 2.2 2.0
2014-Jul-13 06:00N 69°54' W 018°12'0 0.0 030 / 161012.3 2.8 2.0 1.1
2014-Jul-13 05:00N 69°54' W 018°12'6 6.2 020 / 171012.7 2.8 2.1 1.1
2014-Jul-13 04:00N 69°54' W 018°30'2 2.1 030 / 161013.0 2.8 2.1 1.5
2014-Jul-13 03:00N 69°54' W 018°36'6 3.2 040 / 161013.2 2.7 2.0 1.5
2014-Jul-13 01:00N 70°00' W 018°42'7 7.3 030 / 191013.0 0.1-0.6 1.2
2014-Jul-13 00:00N 69°54' W 018°54'9 4.3 030 / 191013.3 2.7 1.9 1.4
2014-Jul-12 22:00N 70°00' W 019°12'1010.3 030 / 231014.0 2.5 1.7 1.4
2014-Jul-12 21:00N 70°00' W 018°42'16 8.2 030 / 251013.3 3.0 2.2 1.4
2014-Jul-12 19:00N 70°00' W 017°54'7 7.3 040 / 191013.2 3.4 2.7 2.0
2014-Jul-12 18:00N 69°54' W 018°06'1212.2 040 / 211012.7 3.3 2.6 2.3
2014-Jul-12 17:00N 69°42' W 018°12'7 7.3 040 / 211012.7 3.5 2.7 2.5
2014-Jul-12 16:00N 69°36' W 018°24'7 7.3 030 / 191012.5 3.1 2.3 1.0
2014-Jul-12 15:00N 69°30' W 018°36'1312.7 040 / 191012.3 2.7 1.9 1.6
2014-Jul-12 14:00N 69°18' W 018°48'6 6.4 040 / 171012.5 3.1 2.3 1.2
2014-Jul-12 13:00N 69°12' W 018°54'2010.0 040 / 171012.5 3.0 2.2 1.1
2014-Jul-12 11:00N 68°54' W 019°18'6 6.4 050 / 191011.7 3.3 2.6 2.2
2014-Jul-12 10:00N 68°48' W 019°24'7 7.4 050 / 191011.5 3.7 2.9 2.0
2014-Jul-12 09:00N 68°42' W 019°36'1312.8 050 / 211010.8 3.7 3.0 2.7
2014-Jul-12 08:00N 68°30' W 019°48'2 2.2 050 / 211010.7 4.1 3.4 1.9
2014-Jul-12 07:00N 68°30' W 019°54'6 6.4 050 / 231010.2 4.0 3.3 2.8
2014-Jul-12 06:00N 68°24' W 020°00'6 6.4 050 / 231009.6 4.1 3.4 2.5
2014-Jul-12 05:00N 68°18' W 020°06'   050 / 251009.2 4.1 3.3 2.8
Track history (hours):
 
Tides and Currents Weather Stations Pressure Air Temp Water Temp Dewpoint Dewpoint Depression Visibility Wind Speed Wind Dir Waves Ship Positions

Oceanographic research ship Hakon Mosby (Norway)

Detailed information on ship capabilities available from University of Delaware's Ocean Information Center and ARCUS's ALIAS (Arctic Logistics Information and Support) project.

Last reported at 2014-Jul-22 05:00 UTC. Time now 2014-Jul-22 09:19 UTC.
Position N 73°00' E 027°00'.

Type: Dredging. MMSI: 258244000.

Wind from 300 at 8 knots

Barometer 1022.6 mb
Air temperature 8.6 ° C
Dewpoint 7.6 ° C
Water temperature 8.6 ° C

Date/timePositionNaut miles runAvg speedWind from/ knotsBaromVisibWave heightAir tempDewpointWater temp
2014-Jul-22 05:00N 73°00' E 027°00'1110.5 300 / 81022.6 8.6 7.6 8.6
2014-Jul-22 04:00N 73°00' E 026°24'1110.6 290 / 81022.7 8.4 7.2 8.6
2014-Jul-22 03:00N 72°54' E 025°54'9 8.8 290 / 81022.8 8.4 6.9 8.5
2014-Jul-22 02:00N 72°54' E 025°24'1212.2 250 / 61022.8 8.3 6.6 8.5
2014-Jul-22 01:00N 72°48' E 024°48'1110.7 250 / 41022.9 7.8 6.5 9.1
2014-Jul-22 00:00N 72°42' E 024°18'14 7.1 340 / 21022.8 7.3 6.4 8.6
2014-Jul-21 22:00N 72°42' E 023°30'9 9.3 270 / 41023.2 8.1 6.7 9.0
2014-Jul-21 21:00N 72°36' E 023°06'1110.8 250 / 21023.2 8.3 6.9 9.2
2014-Jul-21 20:00N 72°30' E 022°36'7 7.2 180 / 21023.1 8.3 6.8 9.1
2014-Jul-21 19:00N 72°30' E 022°12'17 8.7 160 / 41023.2 8.6 7.2 9.1
2014-Jul-21 17:00N 72°24' E 021°18'9 9.4 160 / 4 8.6 7.3 9.6
2014-Jul-21 16:00N 72°18' E 020°54'9 9.1 160 / 41023.2 8.2 7.1 9.3
2014-Jul-21 15:00N 72°18' E 020°24'27 8.9 150 / 41023.3 8.5 7.4 9.0
2014-Jul-21 12:00N 72°06' E 019°06'8 8.2 170 / 61023.3 4.0 3.4 9.7
2014-Jul-21 11:00N 72°00' E 018°48'7 7.4 160 / 101023.2 9.1 8.5 9.3
2014-Jul-21 10:00N 72°00' E 018°24'0 0.0 150 / 81023.2 9.1 8.4 9.8
2014-Jul-21 09:00N 72°00' E 018°24'0 0.0 150 / 81023.3 9.1 8.5 9.8
2014-Jul-21 08:00N 72°00' E 018°24'0 0.0 160 / 81023.2 9.1 8.510.0
2014-Jul-21 07:00N 72°00' E 018°24'6 6.3 140 / 81023.2 9.1 8.4 9.8
2014-Jul-21 06:00N 71°54' E 018°30'3110.2 120 / 141023.2 8.6 8.0 9.7
2014-Jul-21 03:00N 71°24' E 018°48'1212.0 110 / 141023.2 9.1 8.5 9.7
2014-Jul-21 02:00N 71°12' E 018°48'1212.2 100 / 161023.3 9.0 8.4 9.7
2014-Jul-21 01:00N 71°00' E 018°54'1212.2 100 / 161023.2 9.0 8.3 9.8
2014-Jul-21 00:00N 70°48' E 019°00'6 6.3 100 / 171023.1 9.0 8.2 9.8
2014-Jul-20 23:00N 70°42' E 019°06'1212.2 090 / 171023.2 9.1 8.310.2
2014-Jul-20 22:00N 70°30' E 019°12'1212.2 090 / 191023.1 8.7 7.8 9.6
2014-Jul-20 21:00N 70°18' E 019°18'1212.2 100 / 191023.0 8.3 7.2 8.3
2014-Jul-20 20:00N 70°06' E 019°24'18 9.0 070 / 171022.7 9.6 8.0 8.6
2014-Jul-20 18:00N 69°48' E 019°24'16 7.9 110 / 41022.7 12.410.410.7
2014-Jul-20 16:00N 69°36' E 018°54'0 0.0 060 / 61022.1 12.7 8.8 9.0
2014-Jul-20 15:00N 69°36' E 018°54'0 0.0 060 / 101022.2 12.5 8.8 8.8
2014-Jul-20 13:00N 69°36' E 018°54'0 0.0 050 / 81022.7 12.8 9.0 8.2
2014-Jul-20 12:00N 69°36' E 018°54'0 0.0 060 / 81023.0 12.2 8.7 8.1
2014-Jul-20 10:00N 69°36' E 018°54'0 0.0 070 / 61023.6 11.4 8.7 8.1
2014-Jul-20 09:00N 69°36' E 018°54'0 0.0 070 / 41023.8 10.6 9.0 8.1
2014-Jul-20 08:00N 69°36' E 018°54'0 0.0 070 / 41024.2 10.0 9.0 8.3
2014-Jul-20 07:00N 69°36' E 018°54'0 0.0 070 / 41024.5 9.5 8.5 8.1
2014-Jul-20 05:00N 69°36' E 018°54'0 0.0 160 / 21024.7 9.4-5.5 8.1
2014-Jul-20 04:00N 69°36' E 018°54'0 0.0 080 / 21025.0 8.9 8.0 8.1
2014-Jul-20 03:00N 69°36' E 018°54'0 0.0 050 / 21025.2 9.1 8.1 8.1
2014-Jul-20 00:00N 69°36' E 018°54'0 0.0 050 / 41025.7 9.7 8.6 8.2
2014-Jul-19 23:00N 69°36' E 018°54'0 0.0 060 / 41025.7 10.1 8.9 8.1
2014-Jul-19 22:00N 69°36' E 018°54'0 0.0 060 / 41025.9 10.4 9.1 8.3
2014-Jul-19 21:00N 69°36' E 018°54'0 0.0 070 / 61025.7 10.3 8.9 8.5
2014-Jul-19 20:00N 69°36' E 018°54'0 0.0 060 / 8 10.4 8.7 8.5
2014-Jul-19 19:00N 69°36' E 018°54'0 0.0 060 / 101025.5 11.5 8.8 8.6
2014-Jul-19 18:00N 69°36' E 018°54'0 0.0 040 / 81025.7 11.5 8.7 8.8
2014-Jul-19 15:00N 69°36' E 018°54'0 0.0 050 / 101025.5 13.3 9.1 8.3
2014-Jul-19 13:00N 69°36' E 018°54'0 0.0 050 / 81026.0 13.1 8.8 7.8
2014-Jul-19 12:00N 69°36' E 018°54'0 0.0 060 / 81026.2 13.6 9.1 7.6
2014-Jul-19 11:00N 69°36' E 018°54'0 0.0 060 / 61026.2 12.6 8.9 7.6
2014-Jul-19 10:00N 69°36' E 018°54'0 0.0 060 / 61026.2 11.9 8.5 7.7
2014-Jul-19 09:00N 69°36' E 018°54'0 0.0 060 / 41026.5 11.3 8.6 7.8
2014-Jul-19 07:00N 69°36' E 018°54'0 0.0 060 / 41026.5 10.8 8.5 7.6
2014-Jul-19 06:00N 69°36' E 018°54'0 0.0 060 / 41026.5 10.5 8.6 7.8
2014-Jul-19 05:00N 69°36' E 018°54'0 0.0 060 / 41026.4 10.1 8.5 7.8
2014-Jul-19 04:00N 69°36' E 018°54'0 0.0 060 / 41026.2 9.8 8.2 7.6
2014-Jul-19 03:00N 69°36' E 018°54'0 0.0 060 / 61026.2 9.8 8.3 7.8
2014-Jul-19 02:00N 69°36' E 018°54'0 0.0 060 / 41026.2 10.1 8.4 7.8
2014-Jul-19 01:00N 69°36' E 018°54'0 0.0 060 / 61026.0 10.3 8.5 7.6
2014-Jul-19 00:00N 69°36' E 018°54'0 0.0 070 / 61025.9 10.5 8.8 7.8
2014-Jul-18 23:00N 69°36' E 018°54'0 0.0 060 / 21025.7 10.6 8.7 7.6
2014-Jul-18 21:00N 69°36' E 018°54'0 0.0 060 / 81025.4 0.3-1.5 7.6
2014-Jul-18 20:00N 69°36' E 018°54'0 0.0 060 / 61024.9 11.0 8.7 7.8
2014-Jul-18 19:00N 69°36' E 018°54'0 0.0 050 / 61024.5 11.6 9.0 7.8
2014-Jul-18 18:00N 69°36' E 018°54'0 0.0 060 / 81024.2 11.8 9.1 7.6
2014-Jul-18 17:00N 69°36' E 018°54'0 0.0 050 / 81024.2 12.5 9.1 8.0
2014-Jul-18 15:00N 69°36' E 018°54'0 0.0 050 / 81023.8 13.4 9.4 7.8
2014-Jul-18 13:00N 69°36' E 018°54'0 0.0 050 / 41023.7 13.6 9.3 7.6
2014-Jul-18 12:00N 69°36' E 018°54'0 0.0 050 / 61023.6 13.5 9.2 7.8
2014-Jul-18 10:00N 69°36' E 018°54'0 0.0 050 / 61023.5 12.7 9.3 7.7
2014-Jul-18 09:00N 69°36' E 018°54'0 0.0 040 / 81023.1 11.5 9.3 7.8
2014-Jul-18 07:00N 69°36' E 018°54'0 0.0 050 / 61022.5 11.0 8.6 8.1
2014-Jul-18 06:00N 69°36' E 018°54'0 0.0 050 / 81022.2 10.9 8.6 7.8
2014-Jul-18 05:00N 69°36' E 018°54'7 7.3 060 / 81022.2 11.0 8.7 8.6
2014-Jul-18 04:00N 69°30' E 018°42'17 8.4 150 / 61021.7 11.5 9.4 8.5
2014-Jul-18 02:00N 69°30' E 017°54'9 8.7 280 / 41021.7 11.5 8.710.7
2014-Jul-18 01:00N 69°36' E 017°36'20 9.9 260 / 21021.6 11.6 8.712.3
2014-Jul-17 23:00N 69°42' E 016°42'2110.4 280 / 41021.6 11.4 8.411.8
2014-Jul-17 21:00N 69°42' E 015°42'1010.2 260 / 41021.4 11.0 8.011.8
2014-Jul-17 20:00N 69°48' E 015°18'2110.4 260 / 41021.2 11.0 8.411.2
2014-Jul-17 18:00N 69°48' E 014°18'1211.9 250 / 61020.7 10.9 4.511.3
2014-Jul-17 17:00N 69°54' E 013°48'8 8.2 240 / 61020.6 10.7 8.710.8
2014-Jul-17 16:00N 69°54' E 013°24'1010.3 240 / 41020.3 10.5 8.510.7
2014-Jul-17 15:00N 69°54' E 012°54'1211.9 230 / 21020.2 10.5 8.610.7
2014-Jul-17 14:00N 70°00' E 012°24'4310.9 250 / 41020.2 10.6 8.510.9
2014-Jul-17 10:00N 70°06' E 010°18'1010.2 230 / 41019.3 10.6 7.710.7
2014-Jul-17 09:00N 70°06' E 009°48'8 8.2 230 / 41019.1 10.5 7.911.4
2014-Jul-17 08:00N 70°06' E 009°24'1212.3 220 / 41018.8 10.4 7.810.7
2014-Jul-17 07:00N 70°06' E 008°48'1211.8 190 / 41018.7 10.1 7.610.7
2014-Jul-17 06:00N 70°12' E 008°18'18 9.1 230 / 21018.2 10.4 8.110.6
2014-Jul-17 04:00N 70°12' E 007°24'1010.2 200 / 41018.0 10.0 8.6 9.0
2014-Jul-17 03:00N 70°12' E 006°54'2010.2 230 / 81017.7 10.1 9.1 9.6
2014-Jul-17 01:00N 70°12' E 005°54'1010.2 250 / 61017.6 10.5 9.510.5
2014-Jul-17 00:00N 70°12' E 005°24'8 8.1 230 / 101017.5 10.5 9.410.5
2014-Jul-16 23:00N 70°12' E 005°00'1010.2 220 / 101017.5 10.5 9.210.0
2014-Jul-16 22:00N 70°12' E 004°30'8 8.1 220 / 101017.2 10.5 9.0 9.8
2014-Jul-16 21:00N 70°12' E 004°06'4 4.1 210 / 81017.0 10.1 8.7 9.3
2014-Jul-16 20:00N 70°12' E 003°54'4 4.1 220 / 121016.6 10.2 8.8 9.0
2014-Jul-16 19:00N 70°12' E 003°42'4 4.1 210 / 121016.2 10.2 8.8 9.1
2014-Jul-16 18:00N 70°12' E 003°30'8 8.1 210 / 121016.0 10.3 8.8 9.5
2014-Jul-16 17:00N 70°12' E 003°06'10 5.1 210 / 61015.7 10.1 8.6 9.0
2014-Jul-16 15:00N 70°12' E 002°36'4 4.1 230 / 101014.8 9.8 8.1 8.8
2014-Jul-16 14:00N 70°12' E 002°24'6 6.1 230 / 101014.7 9.8 7.9 8.8
2014-Jul-16 13:00N 70°12' E 002°06'6 6.1 230 / 101014.2 9.6 7.8 8.1
2014-Jul-16 12:00N 70°12' E 001°48'12 4.0 250 / 101013.7 9.5 7.7 6.9
2014-Jul-16 09:00N 70°00' E 001°48'42 8.4 270 / 141012.7 9.3 8.3 8.0
2014-Jul-16 04:00N 70°42' E 001°48'0 0.0 270 / 161008.7 9.4 8.8 9.5
2014-Jul-16 03:00N 70°42' E 001°48'6 3.0 260 / 161008.2 9.6 8.9 9.3
2014-Jul-16 01:00N 70°36' E 001°48'6 6.0 250 / 161006.9 9.6 9.2 8.8
2014-Jul-16 00:00N 70°30' E 001°48'0 0.0 240 / 121006.2 10.0 9.5 8.8
2014-Jul-15 23:00N 70°30' E 001°48'6 6.0 220 / 121005.7 10.0 9.6 8.9
2014-Jul-15 22:00N 70°24' E 001°48'6 3.0 180 / 101005.3 9.5 9.1 8.8
2014-Jul-15 20:00N 70°18' E 001°48'0 0.0 140 / 141004.7 9.6 8.9 7.8
2014-Jul-15 19:00N 70°18' E 001°48'0 0.0 140 / 141004.4 9.5 8.8 7.7
2014-Jul-15 18:00N 70°18' E 001°48'6 6.0 130 / 141004.1 9.2 8.6 7.5
2014-Jul-15 17:00N 70°12' E 001°48'4 4.1 130 / 141004.0 9.7 9.0 7.1
2014-Jul-15 16:00N 70°12' E 001°36'8 8.1 140 / 171003.7 1.6 0.9 8.4
2014-Jul-15 15:00N 70°12' E 001°12'8 8.1 130 / 171003.6 10.4 9.7 9.1
2014-Jul-15 14:00N 70°12' E 000°48'6 6.1 130 / 171003.3 10.5 9.8 9.2
2014-Jul-15 13:00N 70°12' E 000°30'8 8.1 120 / 161003.3 10.3 9.6 9.8
2014-Jul-15 12:00N 70°12' E 000°06'6 6.1 110 / 171003.5 10.1 9.5 9.3
2014-Jul-15 11:00N 70°12' W 000°12'8 8.1 110 / 171003.8 9.8 9.2 8.9
2014-Jul-15 10:00N 70°12' W 000°36'8 8.1 110 / 171004.3 1.6 1.0 9.3
2014-Jul-15 09:00N 70°12' W 001°00'8 8.1 120 / 211004.5 9.8 9.1 8.4
2014-Jul-15 08:00N 70°12' W 001°24'12 6.1 120 / 161004.7 9.8 9.2 8.6
2014-Jul-15 06:00N 70°12' W 002°00'6 6.1 100 / 191004.7 9.6 9.2 9.0
2014-Jul-15 05:00N 70°12' W 002°18'14 7.1 110 / 211005.2 9.6 9.2 8.4
2014-Jul-15 03:00N 70°12' W 003°00'14 7.1 110 / 171005.7 9.8 9.3 8.5
2014-Jul-15 01:00N 70°12' W 003°42'8 8.1 100 / 161006.7 9.1 8.5 7.8
2014-Jul-15 00:00N 70°12' W 004°06'8 8.1 100 / 161007.1 9.1 8.5 7.8
2014-Jul-14 23:00N 70°12' W 004°30'1010.1 100 / 141007.6 8.7 8.1 7.3
2014-Jul-14 22:00N 70°06' W 004°54'1010.1 110 / 141008.0 8.6 8.0 7.6
2014-Jul-14 21:00N 70°12' W 005°18'17 8.7 100 / 171008.2 8.8 8.2 8.3
2014-Jul-14 19:00N 70°06' W 006°06'8 8.2 110 / 191009.0 8.8 8.0 8.1
2014-Jul-14 18:00N 70°06' W 006°30'1010.2 120 / 191009.1 8.9 8.2 7.6
2014-Jul-14 17:00N 70°00' W 006°54'8 8.2 130 / 211009.3 8.6 8.2 7.3
2014-Jul-14 16:00N 70°00' W 007°18'1010.2 130 / 211009.5 8.8 8.3 7.3
2014-Jul-14 15:00N 69°54' W 007°42'8 8.2 130 / 211009.2 8.5 8.1 7.0
2014-Jul-14 14:00N 69°54' W 008°06'1010.2 130 / 211009.1 8.6 8.1 6.8
2014-Jul-14 13:00N 69°48' W 008°30'1010.2 130 / 211008.7 8.5 8.0 6.6
2014-Jul-14 12:00N 69°42' W 008°54'8 8.3 130 / 211008.3 8.5 8.0 6.8
2014-Jul-14 11:00N 69°42' W 009°18'8 8.3 130 / 191007.7 8.6 8.1 6.6
2014-Jul-14 10:00N 69°42' W 009°42'10 5.2 120 / 191007.8 8.6 8.1 6.8
2014-Jul-14 08:00N 69°42' W 010°12'8 8.3 120 / 191008.1 8.4 8.0 6.6
2014-Jul-14 07:00N 69°42' W 010°36'1010.2 110 / 171007.6 8.3 7.9 6.6
2014-Jul-14 06:00N 69°48' W 011°00'8 8.3 100 / 161007.7 8.1 7.6 6.6
2014-Jul-14 05:00N 69°48' W 011°24'18 8.8 100 / 211007.4 8.6 8.2 6.6
2014-Jul-14 03:00N 69°54' W 012°12'8 8.2 110 / 161008.7 8.0 7.5 6.1
2014-Jul-14 02:00N 69°54' W 012°36'8 8.2 110 / 161008.6 7.8 7.4 5.6
2014-Jul-14 01:00N 69°54' W 013°00'8 8.2 100 / 171008.7 7.4 6.9 5.5
2014-Jul-14 00:00N 69°54' W 013°24'14 6.9 100 / 171008.6 7.0 6.5 5.0
2014-Jul-13 22:00N 70°00' W 014°00'1010.2 090 / 141009.2 6.3 5.8 5.0
2014-Jul-13 21:00N 69°54' W 014°24'12 6.2 090 / 161009.4 6.2 5.6 4.7
2014-Jul-13 19:00N 69°54' W 015°00'10 5.1 070 / 161010.2 6.0 5.4 4.5
2014-Jul-13 17:00N 70°00' W 015°24'1010.2 060 / 161010.7 5.8 5.2 4.0
2014-Jul-13 16:00N 69°54' W 015°48'7 7.3 050 / 141010.7 5.1 4.6 3.9
2014-Jul-13 15:00N 70°00' W 016°00'1010.2 050 / 141011.0 5.4 4.8 3.8
2014-Jul-13 14:00N 69°54' W 016°24'4 4.1 060 / 121011.3 5.0 4.4 4.1
2014-Jul-13 13:00N 69°54' W 016°36'7 7.3 060 / 121011.3 4.8 4.2 3.9
2014-Jul-13 12:00N 70°00' W 016°48'2 2.1 060 / 141011.7 4.5 4.0 3.2
2014-Jul-13 11:00N 70°00' W 016°54'12 6.0 050 / 141011.7 4.5 3.9 3.6
2014-Jul-13 09:00N 69°54' W 017°24'6 6.2 040 / 141012.0 3.7 3.2 1.7
2014-Jul-13 08:00N 69°54' W 017°42'4 4.1 030 / 161012.2 3.2 2.4 2.2
2014-Jul-13 07:00N 69°54' W 017°54'6 6.2 030 / 161012.5 3.0 2.2 2.0
2014-Jul-13 06:00N 69°54' W 018°12'0 0.0 030 / 161012.3 2.8 2.0 1.1
2014-Jul-13 05:00N 69°54' W 018°12'6 6.2 020 / 171012.7 2.8 2.1 1.1
2014-Jul-13 04:00N 69°54' W 018°30'2 2.1 030 / 161013.0 2.8 2.1 1.5
2014-Jul-13 03:00N 69°54' W 018°36'6 3.2 040 / 161013.2 2.7 2.0 1.5
2014-Jul-13 01:00N 70°00' W 018°42'7 7.3 030 / 191013.0 0.1-0.6 1.2
2014-Jul-13 00:00N 69°54' W 018°54'9 4.3 030 / 191013.3 2.7 1.9 1.4
2014-Jul-12 22:00N 70°00' W 019°12'1010.3 030 / 231014.0 2.5 1.7 1.4
2014-Jul-12 21:00N 70°00' W 018°42'16 8.2 030 / 251013.3 3.0 2.2 1.4
2014-Jul-12 19:00N 70°00' W 017°54'7 7.3 040 / 191013.2 3.4 2.7 2.0
2014-Jul-12 18:00N 69°54' W 018°06'1212.2 040 / 211012.7 3.3 2.6 2.3
2014-Jul-12 17:00N 69°42' W 018°12'7 7.3 040 / 211012.7 3.5 2.7 2.5
2014-Jul-12 16:00N 69°36' W 018°24'7 7.3 030 / 191012.5 3.1 2.3 1.0
2014-Jul-12 15:00N 69°30' W 018°36'1312.7 040 / 191012.3 2.7 1.9 1.6
2014-Jul-12 14:00N 69°18' W 018°48'6 6.4 040 / 171012.5 3.1 2.3 1.2
2014-Jul-12 13:00N 69°12' W 018°54'2010.0 040 / 171012.5 3.0 2.2 1.1
2014-Jul-12 11:00N 68°54' W 019°18'6 6.4 050 / 191011.7 3.3 2.6 2.2
2014-Jul-12 10:00N 68°48' W 019°24'7 7.4 050 / 191011.5 3.7 2.9 2.0
2014-Jul-12 09:00N 68°42' W 019°36'1312.8 050 / 211010.8 3.7 3.0 2.7
2014-Jul-12 08:00N 68°30' W 019°48'2 2.2 050 / 211010.7 4.1 3.4 1.9
2014-Jul-12 07:00N 68°30' W 019°54'6 6.4 050 / 231010.2 4.0 3.3 2.8
2014-Jul-12 06:00N 68°24' W 020°00'6 6.4 050 / 231009.6 4.1 3.4 2.5
2014-Jul-12 05:00N 68°18' W 020°06'   050 / 251009.2 4.1 3.3 2.8

Dump ship's entire track history